Time;durP1;ratioP1;P1;durP2;ratioP2;P2;SDS_P1;SDS_P2;PMS_P1;PMS_P2;Temp;Humidity;BMP_temperature;BMP_pressure;BME280_temperature;BME280_humidity;BME280_pressure;Samples;Min_cycle;Max_cycle;Signal;HPM_P1;HPM_P2
2023/01/30 00:02:14;;;;;;;7.75;6.95;;;19.00;45.50;;;;;;4986515;28;20217;-68
2023/01/30 00:04:40;;;;;;;7.63;6.82;;;19.00;45.40;;;;;;4991268;28;20197;-68
2023/01/30 00:07:05;;;;;;;7.30;6.60;;;19.00;45.40;;;;;;4972857;28;20197;-68
2023/01/30 00:09:31;;;;;;;8.50;7.60;;;19.00;45.40;;;;;;4974755;28;20181;-68
2023/01/30 00:11:57;;;;;;;7.97;7.18;;;19.00;45.40;;;;;;4980903;28;20615;-68
2023/01/30 00:14:22;;;;;;;8.35;7.53;;;19.00;45.40;;;;;;4968812;28;20190;-68
2023/01/30 00:16:48;;;;;;;8.35;7.40;;;19.00;45.40;;;;;;4971825;28;20217;-68
2023/01/30 00:19:14;;;;;;;8.20;7.40;;;19.00;45.40;;;;;;4965782;28;20297;-68
2023/01/30 00:21:39;;;;;;;8.00;7.20;;;19.00;45.40;;;;;;4965345;28;20267;-68
2023/01/30 00:24:06;;;;;;;8.75;7.80;;;19.00;45.40;;;;;;4989963;28;20215;-68
2023/01/30 00:26:31;;;;;;;8.18;7.38;;;19.00;45.40;;;;;;4966273;28;20184;-68
2023/01/30 00:28:57;;;;;;;8.40;7.60;;;19.00;45.40;;;;;;4960011;28;20217;-68
2023/01/30 00:31:23;;;;;;;9.32;8.13;;;19.00;45.40;;;;;;4964367;28;20186;-68
2023/01/30 00:33:49;;;;;;;7.95;7.15;;;19.00;45.30;;;;;;4994377;28;20224;-68
2023/01/30 00:36:15;;;;;;;7.70;6.93;;;19.00;45.40;;;;;;4976849;28;20203;-68
2023/01/30 00:38:40;;;;;;;8.05;7.07;;;19.00;45.60;;;;;;4976536;28;20224;-68
2023/01/30 00:41:06;;;;;;;7.72;6.72;;;19.00;45.40;;;;;;4976076;28;20574;-68
2023/01/30 00:49:14;;;;;;;7.35;6.57;;;19.00;45.40;;;;;;4964912;28;20208;-68
2023/01/30 00:51:40;;;;;;;7.50;6.70;;;19.00;45.30;;;;;;4972652;28;20229;-67
2023/01/30 00:54:06;;;;;;;7.53;6.82;;;19.00;45.30;;;;;;4972128;28;20224;-68
2023/01/30 00:56:32;;;;;;;7.90;7.10;;;19.00;45.30;;;;;;4969771;28;20658;-68
2023/01/30 00:58:57;;;;;;;8.00;6.97;;;19.00;45.30;;;;;;4968972;28;20252;-68
2023/01/30 01:01:23;;;;;;;8.10;7.35;;;19.00;45.30;;;;;;4969325;28;20196;-68
2023/01/30 01:03:49;;;;;;;7.25;6.55;;;19.00;45.20;;;;;;4963481;28;20253;-68
2023/01/30 01:06:15;;;;;;;7.50;6.80;;;19.00;45.20;;;;;;4964843;28;20192;-68
2023/01/30 01:08:40;;;;;;;7.57;6.78;;;19.00;45.30;;;;;;4972621;28;20217;-68
2023/01/30 01:11:06;;;;;;;7.28;6.57;;;19.00;45.30;;;;;;4951903;28;20189;-68
2023/01/30 01:13:32;;;;;;;7.07;6.32;;;19.00;45.30;;;;;;4974489;28;20199;-68
2023/01/30 01:15:58;;;;;;;7.57;6.70;;;19.00;45.30;;;;;;4988948;28;20276;-68
2023/01/30 01:18:24;;;;;;;7.05;6.35;;;19.00;45.30;;;;;;4973078;28;20248;-68
2023/01/30 01:20:50;;;;;;;7.47;6.78;;;19.00;45.30;;;;;;4971179;28;20586;-68
2023/01/30 01:23:15;;;;;;;7.13;6.43;;;19.00;45.20;;;;;;4963171;28;20292;-68
2023/01/30 01:25:41;;;;;;;8.13;7.32;;;19.00;45.30;;;;;;4943078;28;20190;-68
2023/01/30 01:28:07;;;;;;;8.70;7.28;;;19.00;45.20;;;;;;4964153;28;20202;-68
2023/01/30 01:30:33;;;;;;;7.28;6.57;;;19.00;45.20;;;;;;4958011;28;20196;-68
2023/01/30 01:32:58;;;;;;;8.38;7.55;;;19.00;45.20;;;;;;4948751;28;20205;-68
2023/01/30 01:35:24;;;;;;;8.40;7.60;;;19.00;45.20;;;;;;4980434;28;20204;-68
2023/01/30 01:37:54;;;;;;;7.80;6.93;;;19.00;45.20;;;;;;4949003;28;20217;-68
2023/01/30 01:43:24;;;;;;;7.57;6.88;;;19.00;45.20;;;;;;4981466;28;20217;-68
2023/01/30 01:45:59;;;;;;;7.93;7.22;;;19.00;45.20;;;;;;4948264;28;20186;-68
2023/01/30 01:48:35;;;;;;;8.05;7.35;;;19.00;45.20;;;;;;4965053;28;20204;-68
2023/01/30 01:51:39;;;;;;;7.32;6.63;;;19.00;45.20;;;;;;4961802;28;20189;-68
2023/01/30 01:54:14;;;;;;;8.00;7.05;;;19.00;45.20;;;;;;4964358;28;20622;-67
2023/01/30 01:56:46;;;;;;;7.57;6.88;;;19.00;45.10;;;;;;4956269;28;20193;-68
2023/01/30 01:59:31;;;;;;;7.38;6.68;;;19.00;45.70;;;;;;4967813;28;20205;-68
2023/01/30 02:02:04;;;;;;;7.72;7.03;;;19.00;45.10;;;;;;4992385;28;20664;-68
2023/01/30 02:07:20;;;;;;;7.18;6.47;;;19.00;45.10;;;;;;4974985;28;20689;-68
2023/01/30 02:09:49;;;;;;;7.68;6.90;;;19.00;45.20;;;;;;4951059;28;20180;-68
2023/01/30 02:12:14;;;;;;;7.32;6.63;;;19.00;45.10;;;;;;4975053;28;20185;-68
2023/01/30 02:14:42;;;;;;;8.05;7.00;;;19.00;45.10;;;;;;4958452;28;20185;-68
2023/01/30 02:17:07;;;;;;;7.20;6.50;;;19.00;45.00;;;;;;4947628;28;20190;-68
2023/01/30 02:20:17;;;;;;;7.10;6.40;;;19.00;45.10;;;;;;4971548;28;20212;-68
2023/01/30 02:23:25;;;;;;;8.07;7.28;;;19.00;45.00;;;;;;4958524;28;20216;-68
2023/01/30 02:26:23;;;;;;;7.35;6.65;;;19.00;45.00;;;;;;4947056;28;20192;-69
2023/01/30 02:29:38;;;;;;;7.00;6.30;;;19.00;45.00;;;;;;4964091;28;20300;-68
2023/01/30 02:32:28;;;;;;;6.95;6.35;;;19.00;45.00;;;;;;4963452;28;20204;-68
2023/01/30 02:35:23;;;;;;;6.88;6.20;;;19.00;45.00;;;;;;4963566;28;20217;-68
2023/01/30 02:38:19;;;;;;;7.00;6.32;;;19.00;45.00;;;;;;4979739;28;20217;-68
2023/01/30 02:41:13;;;;;;;6.78;6.18;;;19.00;45.00;;;;;;4971139;28;20276;-68
2023/01/30 02:43:58;;;;;;;6.90;6.30;;;19.00;45.00;;;;;;4981047;28;20299;-68
2023/01/30 02:46:53;;;;;;;7.05;6.45;;;19.00;45.00;;;;;;4981234;28;20181;-68
2023/01/30 02:49:37;;;;;;;6.90;6.30;;;19.00;45.00;;;;;;4949297;28;20181;-68
2023/01/30 02:52:07;;;;;;;6.50;5.90;;;19.00;45.00;;;;;;4975333;28;20188;-68
2023/01/30 02:54:33;;;;;;;6.53;5.93;;;19.00;45.00;;;;;;4965103;28;20186;-68
2023/01/30 02:57:00;;;;;;;6.60;6.00;;;19.00;44.90;;;;;;4981202;28;20239;-68
2023/01/30 02:59:33;;;;;;;6.00;5.50;;;19.00;45.00;;;;;;4980976;28;20189;-68
2023/01/30 03:02:11;;;;;;;6.70;6.20;;;19.00;45.00;;;;;;4977638;28;20217;-68
2023/01/30 03:05:02;;;;;;;6.38;5.75;;;19.00;45.00;;;;;;4960965;28;20193;-68
2023/01/30 03:07:53;;;;;;;6.72;6.05;;;19.00;45.00;;;;;;4988661;23;20209;-66
2023/01/30 03:10:41;;;;;;;6.32;5.68;;;19.00;44.90;;;;;;4999271;28;20770;-67
2023/01/30 03:13:24;;;;;;;6.38;5.68;;;19.00;45.00;;;;;;4991336;28;20181;-67
2023/01/30 03:16:07;;;;;;;6.72;6.05;;;19.00;45.00;;;;;;4972609;28;20192;-67
2023/01/30 03:18:33;;;;;;;5.88;5.38;;;19.00;44.90;;;;;;4995045;28;20233;-67
2023/01/30 03:21:04;;;;;;;5.80;5.30;;;19.00;44.90;;;;;;4984201;28;20209;-67
2023/01/30 03:23:30;;;;;;;5.35;4.93;;;19.00;44.90;;;;;;4994216;28;20296;-67
2023/01/30 03:25:57;;;;;;;5.68;5.18;;;19.00;44.90;;;;;;4976671;28;20189;-67
2023/01/30 03:28:24;;;;;;;6.18;5.65;;;19.00;44.90;;;;;;4977521;28;20207;-66
2023/01/30 03:30:49;;;;;;;6.13;5.57;;;19.00;44.90;;;;;;4988495;28;20572;-67
2023/01/30 03:33:15;;;;;;;5.32;4.93;;;19.10;45.00;;;;;;4970210;28;20198;-67
2023/01/30 03:35:46;;;;;;;5.50;5.00;;;19.10;45.00;;;;;;4961721;28;20205;-67
2023/01/30 03:38:13;;;;;;;4.88;4.47;;;19.00;45.00;;;;;;4991926;28;20205;-67
2023/01/30 03:40:39;;;;;;;5.78;5.22;;;19.00;45.00;;;;;;4972547;28;20192;-67
2023/01/30 03:43:05;;;;;;;5.40;4.90;;;19.00;44.90;;;;;;4975235;28;20197;-68
2023/01/30 03:45:31;;;;;;;4.93;4.53;;;19.00;44.90;;;;;;4961349;28;20190;-67
2023/01/30 03:47:57;;;;;;;4.72;4.32;;;19.00;45.50;;;;;;4985250;28;20198;-68
2023/01/30 03:50:23;;;;;;;5.50;5.00;;;19.10;45.10;;;;;;4962758;28;20240;-67
2023/01/30 03:52:49;;;;;;;5.38;4.88;;;19.00;44.90;;;;;;4969141;28;20196;-67
2023/01/30 03:55:18;;;;;;;5.15;4.65;;;19.00;44.90;;;;;;4977923;28;20563;-68
2023/01/30 03:57:44;;;;;;;5.20;4.80;;;19.00;44.90;;;;;;4969402;28;20206;-68
2023/01/30 04:00:10;;;;;;;4.90;4.50;;;19.00;44.90;;;;;;4993641;28;20193;-68
2023/01/30 04:02:45;;;;;;;4.63;4.28;;;19.10;45.00;;;;;;4994668;28;20245;-68
2023/01/30 04:05:14;;;;;;;5.50;5.00;;;19.00;44.80;;;;;;4977988;28;20188;-68
2023/01/30 04:07:45;;;;;;;4.88;4.47;;;19.10;45.00;;;;;;5026272;28;20217;-68
2023/01/30 04:10:14;;;;;;;5.10;4.60;;;19.10;45.00;;;;;;4985317;28;20215;-68
2023/01/30 04:12:41;;;;;;;4.65;4.25;;;19.00;44.90;;;;;;4993107;28;20197;-67
2023/01/30 04:15:09;;;;;;;4.90;4.50;;;19.10;45.00;;;;;;4987973;28;20193;-67
2023/01/30 04:17:53;;;;;;;4.57;4.18;;;19.10;45.00;;;;;;4977776;28;20223;-67
2023/01/30 04:20:38;;;;;;;4.53;4.13;;;19.10;45.00;;;;;;4992788;28;20219;-67
2023/01/30 04:23:04;;;;;;;4.40;4.00;;;19.10;45.00;;;;;;4976991;28;20241;-68
2023/01/30 04:25:30;;;;;;;4.30;4.00;;;19.10;45.10;;;;;;4984997;28;20668;-67
2023/01/30 04:27:56;;;;;;;4.53;4.13;;;19.10;45.00;;;;;;4993098;28;20255;-67
2023/01/30 04:30:32;;;;;;;4.93;4.50;;;19.10;45.10;;;;;;4992816;28;20208;-67
2023/01/30 04:33:21;;;;;;;4.25;3.85;;;19.00;45.60;;;;;;4994197;28;20275;-67
2023/01/30 04:35:56;;;;;;;4.45;4.05;;;19.10;45.00;;;;;;4993032;28;20189;-68
2023/01/30 04:38:22;;;;;;;3.95;3.65;;;19.10;45.00;;;;;;4993112;28;20212;-68
2023/01/30 04:40:51;;;;;;;4.40;4.00;;;19.10;45.10;;;;;;4976512;28;20576;-67
2023/01/30 04:43:18;;;;;;;4.50;4.20;;;19.10;45.00;;;;;;4984713;28;20259;-68
2023/01/30 04:46:09;;;;;;;3.85;3.55;;;19.10;45.10;;;;;;4992758;28;20193;-68
2023/01/30 04:48:35;;;;;;;4.22;3.83;;;19.10;45.10;;;;;;4967615;28;20275;-68
2023/01/30 04:51:02;;;;;;;4.22;3.92;;;19.10;45.10;;;;;;4965197;28;20181;-67
2023/01/30 04:53:28;;;;;;;4.28;3.97;;;19.10;45.10;;;;;;4981200;28;20680;-68
2023/01/30 04:55:53;;;;;;;4.22;3.83;;;19.10;45.20;;;;;;4989466;28;20190;-67
2023/01/30 04:58:20;;;;;;;4.07;3.78;;;19.10;45.80;;;;;;4973111;28;20754;-67
2023/01/30 05:00:47;;;;;;;4.13;3.80;;;19.10;45.10;;;;;;4991137;28;20200;-67
2023/01/30 05:03:14;;;;;;;4.20;3.90;;;19.10;45.10;;;;;;4966046;28;20236;-68
2023/01/30 05:05:40;;;;;;;4.30;3.90;;;19.10;45.10;;;;;;4981231;28;20181;-68
2023/01/30 05:08:08;;;;;;;4.13;3.75;;;19.10;45.10;;;;;;4977668;28;20307;-68
2023/01/30 05:10:33;;;;;;;4.28;3.90;;;19.10;45.10;;;;;;4983811;28;20639;-67
2023/01/30 05:13:05;;;;;;;3.83;3.53;;;19.10;45.10;;;;;;4973977;28;20200;-68
2023/01/30 05:15:32;;;;;;;3.97;3.67;;;19.10;45.10;;;;;;4980930;28;20194;-68
2023/01/30 05:17:59;;;;;;;3.55;3.25;;;19.10;45.10;;;;;;4980764;28;20216;-68
2023/01/30 05:20:24;;;;;;;4.35;3.95;;;19.10;45.10;;;;;;5005087;28;20252;-67
2023/01/30 05:22:50;;;;;;;4.38;3.97;;;19.10;45.10;;;;;;4984876;28;20217;-69
2023/01/30 05:25:16;;;;;;;4.55;4.15;;;19.10;45.10;;;;;;4984225;28;20195;-67
2023/01/30 05:27:42;;;;;;;4.15;3.75;;;19.10;45.10;;;;;;4984490;28;20217;-68
2023/01/30 05:30:08;;;;;;;4.57;4.18;;;19.10;45.10;;;;;;4968650;28;20201;-68
2023/01/30 05:32:34;;;;;;;4.10;3.70;;;19.10;45.10;;;;;;4985064;28;20240;-68
2023/01/30 05:35:00;;;;;;;4.38;3.97;;;19.10;45.10;;;;;;4981129;28;20197;-67
2023/01/30 05:37:25;;;;;;;3.72;3.42;;;19.10;45.10;;;;;;4987989;28;20692;-69
2023/01/30 05:39:51;;;;;;;4.40;4.00;;;19.10;45.10;;;;;;5022753;28;20189;-68
2023/01/30 05:42:17;;;;;;;4.38;3.97;;;19.10;45.10;;;;;;4965257;28;20204;-67
2023/01/30 05:44:43;;;;;;;3.47;3.17;;;19.20;45.20;;;;;;4990779;28;20191;-68
2023/01/30 05:47:09;;;;;;;3.60;3.30;;;19.10;45.10;;;;;;4981013;28;20186;-68
2023/01/30 05:49:35;;;;;;;4.70;4.30;;;19.10;45.20;;;;;;4980578;28;20298;-67
2023/01/30 05:52:00;;;;;;;4.43;4.03;;;19.10;45.10;;;;;;4992448;28;20259;-68
2023/01/30 05:54:26;;;;;;;4.30;4.00;;;19.10;45.10;;;;;;4976042;28;20184;-68
2023/01/30 05:56:52;;;;;;;4.00;3.70;;;19.20;45.20;;;;;;4984120;28;20189;-69
2023/01/30 05:59:17;;;;;;;4.10;3.75;;;19.10;45.20;;;;;;4991808;28;20212;-68
2023/01/30 06:01:43;;;;;;;3.70;3.40;;;19.10;45.20;;;;;;4991533;28;20198;-68
2023/01/30 06:04:09;;;;;;;4.15;3.70;;;19.10;45.20;;;;;;5008265;28;20942;-68
2023/01/30 06:06:35;;;;;;;3.13;2.88;;;19.10;45.30;;;;;;4992032;28;20185;-67
2023/01/30 06:09:01;;;;;;;4.00;3.60;;;19.20;45.30;;;;;;4964540;28;20248;-68
2023/01/30 06:11:28;;;;;;;3.70;3.40;;;19.20;45.30;;;;;;4964218;28;20197;-67
2023/01/30 06:13:53;;;;;;;3.72;3.42;;;19.20;45.30;;;;;;4974426;28;20196;-67
2023/01/30 06:16:20;;;;;;;3.70;3.40;;;19.20;45.40;;;;;;4968977;28;20192;-67
2023/01/30 06:18:46;;;;;;;3.38;3.10;;;19.20;45.40;;;;;;4989072;28;20215;-68
2023/01/30 06:21:15;;;;;;;3.85;3.53;;;19.20;45.40;;;;;;4961732;28;20189;-67
2023/01/30 06:23:42;;;;;;;3.80;3.50;;;19.20;45.40;;;;;;4989632;28;20291;-67
2023/01/30 06:26:09;;;;;;;3.53;3.22;;;19.20;45.40;;;;;;5015717;28;20216;-67
2023/01/30 06:28:35;;;;;;;3.40;3.10;;;19.20;45.40;;;;;;5015476;28;20205;-68
2023/01/30 06:31:01;;;;;;;3.92;3.58;;;19.20;45.40;;;;;;4999315;28;20173;-67
2023/01/30 06:33:27;;;;;;;3.70;3.40;;;19.20;45.40;;;;;;4983026;28;20219;-67
2023/01/30 06:35:52;;;;;;;3.88;3.58;;;19.20;45.50;;;;;;4964289;28;20240;-67
2023/01/30 06:38:19;;;;;;;3.33;3.10;;;19.20;45.40;;;;;;4956092;28;20210;-67
2023/01/30 06:40:48;;;;;;;3.58;3.00;;;19.20;45.50;;;;;;5011753;28;20204;-68
2023/01/30 06:43:15;;;;;;;3.33;3.10;;;19.20;45.50;;;;;;4954947;28;20201;-68
2023/01/30 06:45:41;;;;;;;3.50;3.20;;;19.20;45.50;;;;;;4995485;28;20194;-68
2023/01/30 06:48:07;;;;;;;3.17;2.88;;;19.20;45.50;;;;;;4990558;28;20208;-68
2023/01/30 06:50:33;;;;;;;3.58;3.28;;;19.20;45.60;;;;;;4990886;28;20181;-67
2023/01/30 06:53:04;;;;;;;3.00;2.80;;;19.20;45.60;;;;;;4979948;28;20190;-68
2023/01/30 06:55:34;;;;;;;3.00;2.80;;;19.20;45.60;;;;;;4986807;28;20208;-68
2023/01/30 06:58:12;;;;;;;3.38;2.63;;;19.20;45.60;;;;;;4982501;28;20208;-68
2023/01/30 07:00:41;;;;;;;2.67;2.47;;;19.20;45.60;;;;;;4982689;28;20288;-67
2023/01/30 07:03:16;;;;;;;3.03;2.80;;;19.20;45.70;;;;;;4982426;28;20303;-68
2023/01/30 07:05:45;;;;;;;2.58;2.38;;;19.20;45.60;;;;;;4982049;28;20283;-68
2023/01/30 07:08:12;;;;;;;3.13;2.83;;;19.20;45.70;;;;;;5006917;28;20687;-68
2023/01/30 07:10:39;;;;;;;2.90;2.70;;;19.20;45.70;;;;;;4962931;28;20184;-67
2023/01/30 07:13:05;;;;;;;3.22;3.03;;;19.20;45.70;;;;;;4971347;28;20189;-69
2023/01/30 07:15:32;;;;;;;2.97;2.70;;;19.20;45.80;;;;;;4986435;28;20216;-68
2023/01/30 07:17:58;;;;;;;2.92;2.60;;;19.20;46.30;;;;;;4963705;28;20212;-68
2023/01/30 07:20:24;;;;;;;2.80;2.60;;;19.20;45.80;;;;;;4984847;28;20200;-68
2023/01/30 07:22:54;;;;;;;3.60;3.30;;;19.20;45.70;;;;;;4980394;28;20216;-68
2023/01/30 07:25:23;;;;;;;3.20;2.50;;;19.20;45.80;;;;;;4960849;28;20278;-68
2023/01/30 07:27:58;;;;;;;2.85;2.58;;;19.20;45.70;;;;;;4982685;28;20287;-68
2023/01/30 07:30:26;;;;;;;2.97;2.78;;;19.20;46.30;;;;;;4990671;28;20180;-68
2023/01/30 07:32:56;;;;;;;2.83;2.63;;;19.20;45.80;;;;;;4977936;28;20276;-68
2023/01/30 07:35:24;;;;;;;2.53;2.33;;;19.20;45.70;;;;;;4972544;28;20340;-68
2023/01/30 07:37:50;;;;;;;2.90;2.60;;;19.20;45.70;;;;;;4991783;28;20216;-68
2023/01/30 07:40:18;;;;;;;2.80;2.60;;;19.20;45.60;;;;;;4964938;28;20249;-68
2023/01/30 07:43:03;;;;;;;2.90;2.70;;;19.30;45.70;;;;;;4990883;28;20236;-68
2023/01/30 07:45:37;;;;;;;2.70;2.50;;;19.30;46.40;;;;;;4963629;28;20256;-68
2023/01/30 07:48:03;;;;;;;2.72;2.53;;;19.30;45.70;;;;;;4974137;28;20209;-68
2023/01/30 07:50:29;;;;;;;2.95;2.70;;;19.30;45.70;;;;;;4980539;28;20185;-69
2023/01/30 07:52:54;;;;;;;3.17;2.67;;;19.30;45.70;;;;;;4977429;28;20220;-68
2023/01/30 07:55:20;;;;;;;2.85;2.65;;;19.30;45.80;;;;;;4977649;28;20188;-69
2023/01/30 07:57:46;;;;;;;2.90;2.70;;;19.30;45.70;;;;;;4977383;28;20276;-67
2023/01/30 08:00:13;;;;;;;2.60;2.40;;;19.30;45.70;;;;;;4973585;28;20567;-68
2023/01/30 08:02:39;;;;;;;2.67;2.47;;;19.30;45.80;;;;;;4957703;28;20216;-69
2023/01/30 08:05:05;;;;;;;2.40;2.08;;;19.30;45.70;;;;;;4990272;28;20189;-68
2023/01/30 08:07:31;;;;;;;2.63;2.42;;;19.30;45.70;;;;;;4989883;28;20189;-69
2023/01/30 08:09:57;;;;;;;2.42;2.22;;;19.30;45.70;;;;;;4985559;28;20200;-67
2023/01/30 08:12:22;;;;;;;2.70;2.50;;;19.30;45.70;;;;;;4979741;28;20196;-68
2023/01/30 08:14:48;;;;;;;2.75;2.55;;;19.30;45.70;;;;;;4982913;28;20251;-68
2023/01/30 08:17:14;;;;;;;2.63;2.42;;;19.40;45.70;;;;;;4969276;28;20566;-68
2023/01/30 08:19:39;;;;;;;2.83;2.60;;;19.30;45.70;;;;;;4994373;28;20283;-68
2023/01/30 08:22:05;;;;;;;2.40;2.20;;;19.30;45.80;;;;;;4968574;28;20645;-68
2023/01/30 08:24:31;;;;;;;3.38;3.00;;;19.40;45.80;;;;;;4993178;28;20212;-68
2023/01/30 08:26:56;;;;;;;3.47;2.67;;;19.30;45.80;;;;;;4991033;28;20223;-68
2023/01/30 08:29:24;;;;;;;2.55;2.35;;;19.30;45.80;;;;;;4981877;28;20212;-67
2023/01/30 08:31:50;;;;;;;2.85;2.65;;;19.30;45.80;;;;;;4990646;28;20185;-68
2023/01/30 08:34:16;;;;;;;2.85;2.40;;;19.30;45.80;;;;;;5025953;28;20259;-68
2023/01/30 08:36:45;;;;;;;2.47;2.28;;;19.30;45.80;;;;;;4961308;28;20256;-68
2023/01/30 08:39:11;;;;;;;2.60;2.40;;;19.30;46.50;;;;;;4992156;28;20247;-67
2023/01/30 08:41:37;;;;;;;2.70;2.50;;;19.40;45.90;;;;;;4961699;28;20193;-68
2023/01/30 08:44:03;;;;;;;2.70;2.45;;;19.40;45.90;;;;;;4968194;28;20190;-68
2023/01/30 08:46:28;;;;;;;2.20;2.10;;;19.40;45.80;;;;;;4992893;28;20646;-69
2023/01/30 08:48:54;;;;;;;2.33;2.13;;;19.50;45.90;;;;;;4960404;28;20229;-68
2023/01/30 08:51:20;;;;;;;2.42;2.22;;;19.40;45.90;;;;;;4985770;28;20191;-68
2023/01/30 08:53:45;;;;;;;2.30;2.10;;;19.40;46.00;;;;;;4960316;28;20201;-68
2023/01/30 08:56:11;;;;;;;2.50;2.30;;;19.40;46.00;;;;;;4993794;28;20630;-68
2023/01/30 08:58:37;;;;;;;2.60;2.40;;;19.40;46.00;;;;;;4989650;28;20219;-68
2023/01/30 09:01:06;;;;;;;1.90;1.80;;;19.40;46.00;;;;;;4989554;28;20198;-68
2023/01/30 09:03:32;;;;;;;2.42;2.22;;;19.40;46.00;;;;;;4973233;28;20206;-68
2023/01/30 09:05:57;;;;;;;2.85;2.65;;;19.40;46.00;;;;;;4979123;28;20202;-67
2023/01/30 09:08:23;;;;;;;2.30;2.10;;;19.40;46.00;;;;;;5017324;23;20721;-70
2023/01/30 09:10:49;;;;;;;2.30;2.10;;;19.40;46.00;;;;;;4948788;28;20199;-69
2023/01/30 09:13:16;;;;;;;2.13;2.03;;;19.40;46.00;;;;;;4976177;28;20195;-69
2023/01/30 09:15:43;;;;;;;2.50;2.30;;;19.40;46.00;;;;;;4959942;28;20284;-69
2023/01/30 09:18:08;;;;;;;2.50;2.30;;;19.50;46.10;;;;;;4959578;28;20240;-70
2023/01/30 09:20:34;;;;;;;2.53;2.33;;;19.50;46.10;;;;;;4992928;28;20275;-70
2023/01/30 09:23:00;;;;;;;2.67;2.20;;;19.40;46.00;;;;;;4975805;28;20224;-69
2023/01/30 09:25:27;;;;;;;2.17;1.98;;;19.40;46.00;;;;;;4959607;28;20185;-70
2023/01/30 09:27:52;;;;;;;2.45;2.25;;;19.40;46.00;;;;;;4988447;28;20182;-69
2023/01/30 09:30:19;;;;;;;1.95;1.85;;;19.50;46.10;;;;;;4975689;28;20228;-69
2023/01/30 09:32:45;;;;;;;2.15;2.03;;;19.50;46.10;;;;;;4975786;28;20189;-69
2023/01/30 09:35:11;;;;;;;2.50;2.30;;;19.50;46.10;;;;;;4975586;28;20220;-69
2023/01/30 09:37:36;;;;;;;2.15;2.00;;;19.50;46.10;;;;;;4992082;28;20197;-69
2023/01/30 09:40:03;;;;;;;2.20;2.00;;;19.50;46.10;;;;;;4967406;28;20215;-69
2023/01/30 09:43:01;;;;;;;2.63;2.42;;;19.50;46.70;;;;;;4992759;28;20200;-70
2023/01/30 09:45:51;;;;;;;2.00;1.90;;;19.50;46.10;;;;;;4953793;28;20184;-69
2023/01/30 09:48:23;;;;;;;2.20;2.00;;;19.50;46.10;;;;;;4952067;28;20209;-69
2023/01/30 09:51:30;;;;;;;2.58;2.38;;;19.50;46.10;;;;;;4958898;28;20193;-69
2023/01/30 09:54:23;;;;;;;2.30;2.10;;;19.50;46.10;;;;;;4943547;28;20209;-69
2023/01/30 09:57:19;;;;;;;2.22;2.10;;;19.50;46.10;;;;;;4975479;28;20271;-70
2023/01/30 09:59:58;;;;;;;2.22;2.03;;;19.60;46.20;;;;;;4992613;28;20212;-69
2023/01/30 10:03:04;;;;;;;1.90;1.80;;;19.60;46.20;;;;;;4992673;28;20705;-69
2023/01/30 10:05:54;;;;;;;2.13;1.85;;;19.60;46.20;;;;;;4953560;28;20177;-69
2023/01/30 10:08:37;;;;;;;2.15;1.95;;;19.60;46.20;;;;;;4992743;28;20601;-69
2023/01/30 10:11:40;;;;;;;2.17;1.98;;;19.60;46.20;;;;;;4959267;28;20197;-70
2023/01/30 10:14:37;;;;;;;1.88;1.77;;;19.60;46.20;;;;;;4991357;28;20239;-70
2023/01/30 10:17:32;;;;;;;1.77;1.67;;;19.60;46.20;;;;;;4975245;28;20193;-69
2023/01/30 10:20:30;;;;;;;2.03;1.92;;;19.60;46.20;;;;;;4974912;28;20209;-69
2023/01/30 10:23:27;;;;;;;1.90;1.80;;;19.60;46.20;;;;;;4956460;28;20222;-70
2023/01/30 10:25:58;;;;;;;1.88;1.77;;;19.60;46.20;;;;;;4980886;28;20211;-70
2023/01/30 10:28:57;;;;;;;2.00;1.90;;;19.70;46.30;;;;;;4975020;28;20262;-70
2023/01/30 10:31:29;;;;;;;2.20;2.00;;;19.70;46.40;;;;;;4984296;28;20189;-69
2023/01/30 10:34:12;;;;;;;2.10;2.00;;;19.70;46.40;;;;;;4992266;28;20192;-69
2023/01/30 10:36:48;;;;;;;1.88;1.77;;;19.60;46.40;;;;;;4974914;28;20209;-70
2023/01/30 10:39:50;;;;;;;1.92;1.63;;;19.70;46.50;;;;;;4974715;28;20204;-69
2023/01/30 10:42:27;;;;;;;1.98;1.88;;;19.70;46.60;;;;;;4984137;28;20212;-69
2023/01/30 10:45:02;;;;;;;1.60;1.50;;;19.70;46.50;;;;;;4991100;28;20195;-69
2023/01/30 10:48:15;;;;;;;1.70;1.60;;;19.70;46.60;;;;;;4992159;28;20188;-70
2023/01/30 10:50:58;;;;;;;1.83;1.73;;;19.70;46.60;;;;;;4969924;28;20303;-69
2023/01/30 10:53:47;;;;;;;1.70;1.60;;;19.70;46.70;;;;;;4967700;28;20196;-70
2023/01/30 10:56:27;;;;;;;1.58;1.40;;;19.70;46.70;;;;;;4966746;28;20188;-69
2023/01/30 10:59:39;;;;;;;1.52;1.42;;;19.70;46.80;;;;;;4974407;28;20612;-70
2023/01/30 11:02:36;;;;;;;1.45;1.35;;;19.70;46.80;;;;;;4977040;28;20676;-70
2023/01/30 11:05:14;;;;;;;1.50;1.40;;;19.70;46.80;;;;;;4960813;28;20184;-70
2023/01/30 11:07:42;;;;;;;1.60;1.50;;;19.70;46.80;;;;;;4995901;28;20206;-70
2023/01/30 11:10:26;;;;;;;1.80;1.70;;;19.80;46.80;;;;;;4978285;28;20201;-70
2023/01/30 11:13:17;;;;;;;1.45;1.35;;;19.70;46.80;;;;;;4962161;28;20192;-70
2023/01/30 11:15:48;;;;;;;1.60;1.50;;;19.70;46.80;;;;;;4978639;28;20189;-70
2023/01/30 11:18:16;;;;;;;1.65;1.55;;;19.70;46.80;;;;;;4978031;28;20315;-70
2023/01/30 11:20:50;;;;;;;1.60;1.50;;;19.80;46.90;;;;;;4977609;28;20195;-70
2023/01/30 11:23:31;;;;;;;1.88;1.40;;;19.80;46.90;;;;;;4978348;28;20226;-70
2023/01/30 11:25:58;;;;;;;1.45;1.35;;;19.80;46.90;;;;;;4978408;28;20259;-70
2023/01/30 11:28:25;;;;;;;1.63;1.52;;;19.80;46.90;;;;;;4961894;28;20208;-70
2023/01/30 11:30:58;;;;;;;1.40;1.30;;;19.80;46.90;;;;;;4975824;28;20323;-70
2023/01/30 11:33:39;;;;;;;1.35;1.30;;;19.80;46.90;;;;;;4988447;28;20192;-69
2023/01/30 11:36:34;;;;;;;1.60;1.50;;;19.80;46.90;;;;;;4986162;28;20255;-69
2023/01/30 11:39:03;;;;;;;1.48;1.38;;;19.80;46.90;;;;;;4993270;28;20222;-70
2023/01/30 11:41:30;;;;;;;1.20;1.10;;;19.80;47.00;;;;;;4994570;28;20203;-69
2023/01/30 11:44:09;;;;;;;1.40;1.30;;;19.80;47.00;;;;;;4978293;28;20295;-69
2023/01/30 11:46:39;;;;;;;1.20;1.10;;;19.80;47.00;;;;;;5009976;28;20572;-70
2023/01/30 11:49:15;;;;;;;1.15;1.15;;;19.80;47.00;;;;;;4965960;28;20211;-69
2023/01/30 11:51:45;;;;;;;1.17;1.15;;;19.80;47.00;;;;;;4995649;28;20177;-69
2023/01/30 11:54:19;;;;;;;1.13;1.10;;;19.80;47.00;;;;;;4984094;28;20189;-69
2023/01/30 11:56:54;;;;;;;1.35;1.25;;;19.80;47.10;;;;;;4982597;28;20183;-69
2023/01/30 11:59:54;;;;;;;1.30;1.20;;;19.80;47.00;;;;;;4993977;28;20212;-70
2023/01/30 12:02:25;;;;;;;1.35;1.25;;;19.80;47.10;;;;;;4977012;28;20220;-69
2023/01/30 12:04:55;;;;;;;1.50;1.40;;;19.80;47.10;;;;;;4998913;28;20184;-69
2023/01/30 12:07:25;;;;;;;1.40;1.30;;;19.80;47.10;;;;;;4971649;28;20186;-68
2023/01/30 12:09:53;;;;;;;1.60;1.50;;;19.80;47.10;;;;;;4972958;28;20213;-69
2023/01/30 12:12:47;;;;;;;1.40;1.30;;;19.80;47.20;;;;;;4976543;28;20332;-69
2023/01/30 12:15:25;;;;;;;1.33;1.17;;;19.80;47.10;;;;;;4982613;28;20288;-69
2023/01/30 12:18:19;;;;;;;1.63;1.40;;;19.80;47.20;;;;;;4995122;28;20180;-69
2023/01/30 12:21:27;;;;;;;2.40;1.30;;;19.80;47.10;;;;;;4961194;28;20227;-69
2023/01/30 12:24:06;;;;;;;1.50;1.40;;;19.80;47.20;;;;;;4990004;28;20605;-69
2023/01/30 12:26:46;;;;;;;2.33;1.60;;;19.90;47.40;;;;;;4954866;28;20705;-69
2023/01/30 12:29:35;;;;;;;1.40;1.30;;;19.90;47.40;;;;;;4977566;28;20304;-69
2023/01/30 12:32:12;;;;;;;2.15;1.80;;;19.80;47.30;;;;;;4985443;28;20332;-69
2023/01/30 12:34:38;;;;;;;1.77;1.38;;;19.80;47.30;;;;;;4977603;28;20181;-69
2023/01/30 12:37:38;;;;;;;2.97;1.30;;;19.80;47.30;;;;;;4977561;28;20223;-69
2023/01/30 12:40:32;;;;;;;3.90;1.90;;;19.80;47.30;;;;;;4958592;28;20604;-69
2023/01/30 12:43:54;;;;;;;1.63;1.52;;;19.80;47.30;;;;;;4975699;28;20307;-69
2023/01/30 12:46:43;;;;;;;2.65;1.50;;;19.80;47.40;;;;;;4976019;28;20196;-69
2023/01/30 12:49:33;;;;;;;1.85;1.75;;;19.80;47.40;;;;;;4992544;28;20240;-69
2023/01/30 12:52:35;;;;;;;2.28;1.88;;;19.90;47.40;;;;;;4957342;28;20229;-69
2023/01/30 12:55:35;;;;;;;2.63;1.60;;;19.80;47.40;;;;;;4960504;28;20196;-69
2023/01/30 12:58:32;;;;;;;3.78;1.60;;;19.80;47.30;;;;;;4992560;28;20228;-69
2023/01/30 13:01:38;;;;;;;2.88;1.90;;;19.90;47.40;;;;;;4949430;28;20217;-69
2023/01/30 13:04:31;;;;;;;3.45;2.17;;;19.90;47.50;;;;;;4960022;28;20372;-69
2023/01/30 13:07:23;;;;;;;2.53;1.92;;;19.80;47.40;;;;;;4970411;28;20213;-69
2023/01/30 13:10:12;;;;;;;3.15;2.28;;;19.80;47.40;;;;;;4960066;28;20220;-69
2023/01/30 13:12:59;;;;;;;2.22;1.98;;;19.90;47.50;;;;;;4981704;28;20191;-69
2023/01/30 13:15:43;;;;;;;4.13;1.90;;;19.90;47.60;;;;;;4976625;28;20195;-69
2023/01/30 13:18:40;;;;;;;3.00;2.00;;;19.90;47.60;;;;;;4994117;28;20221;-69
2023/01/30 13:21:18;;;;;;;2.40;1.63;;;19.90;47.60;;;;;;4976096;28;20204;-69
2023/01/30 13:24:24;;;;;;;2.53;1.83;;;19.80;47.50;;;;;;4975896;28;20220;-69
2023/01/30 13:26:53;;;;;;;2.75;1.85;;;19.80;47.50;;;;;;4988490;28;20185;-68
2023/01/30 13:29:38;;;;;;;2.20;1.63;;;19.80;47.50;;;;;;4960595;28;20204;-69
2023/01/30 13:32:17;;;;;;;4.18;2.05;;;19.80;47.60;;;;;;4994565;28;20204;-68
2023/01/30 13:34:48;;;;;;;2.28;2.08;;;19.80;47.60;;;;;;4961417;28;20188;-68